createdAt,value
2017-02-19T10:37:33.256Z,3972
2017-02-19T10:38:14.607Z,3988
2017-02-19T10:38:55.277Z,4012
2017-02-19T10:39:35.935Z,4048
2017-02-19T10:40:16.526Z,4080
2017-02-19T10:40:57.130Z,4096
2017-02-19T10:41:37.710Z,4112
2017-02-19T10:42:18.300Z,4116
2017-02-19T10:42:58.903Z,4108
2017-02-19T10:43:39.509Z,4088
2017-02-19T10:44:20.111Z,4068
2017-02-19T10:45:00.693Z,4052
2017-02-19T10:45:41.277Z,4016
2017-02-19T10:46:21.906Z,3984
2017-02-19T10:47:02.503Z,3948
2017-02-19T10:47:43.068Z,3924
2017-02-19T10:48:23.645Z,3912
2017-02-19T10:49:04.223Z,3896
2017-02-19T10:49:44.819Z,3892
2017-02-19T10:50:25.398Z,3884
2017-02-19T10:51:06.000Z,3916
2017-02-19T10:51:46.620Z,3956
2017-02-19T10:52:27.191Z,3972
2017-02-19T10:53:07.793Z,3956
2017-02-19T10:53:48.453Z,3916
2017-02-19T10:54:29.055Z,3904
2017-02-19T10:55:09.645Z,3884
2017-02-19T10:55:50.219Z,3896
2017-02-19T10:56:30.827Z,3884
2017-02-19T10:57:11.430Z,3856
2017-02-19T10:57:52.000Z,3836
2017-02-19T10:58:32.587Z,3816
2017-02-19T10:59:13.165Z,3796
2017-02-19T10:59:53.750Z,3776
2017-02-19T11:00:34.321Z,3756
2017-02-19T11:01:14.890Z,3744
2017-02-19T11:01:55.466Z,3736
2017-02-19T11:02:36.034Z,3752
2017-02-19T11:03:16.622Z,3764
2017-02-19T11:03:57.195Z,3776
2017-02-19T11:04:37.776Z,3780
2017-02-19T11:05:22.580Z,3768
2017-02-19T11:06:09.007Z,3760
2017-02-19T11:06:50.368Z,3772
2017-02-19T11:07:30.946Z,3768
2017-02-19T11:08:11.522Z,3772
2017-02-19T11:08:52.090Z,3792
2017-02-19T11:09:32.672Z,3824
2017-02-19T11:10:13.317Z,3856
2017-02-19T11:10:53.892Z,3876
2017-02-19T11:11:34.470Z,3888
2017-02-19T11:12:15.116Z,3912
2017-02-19T11:12:55.696Z,3928
2017-02-19T11:13:36.342Z,3940
2017-02-19T11:14:16.919Z,3956
2017-02-19T11:14:57.524Z,3988
2017-02-19T11:15:38.125Z,4024
2017-02-19T11:16:18.718Z,4052
2017-02-19T11:16:59.290Z,4092
2017-02-19T11:17:39.902Z,4188
2017-02-19T11:18:20.507Z,4276
2017-02-19T11:19:01.153Z,4368
2017-02-19T11:19:41.776Z,4396
2017-02-19T11:20:22.372Z,4476
2017-02-19T11:21:02.958Z,4640
2017-02-19T11:21:43.630Z,4756
2017-02-19T11:22:24.198Z,4880
2017-02-19T11:23:04.939Z,4964
2017-02-19T11:23:45.524Z,5044
2017-02-19T11:24:26.096Z,4940
2017-02-19T11:25:06.710Z,4804
2017-02-19T11:25:47.295Z,4696
2017-02-19T11:26:27.898Z,4640
2017-02-19T11:27:08.479Z,4632
2017-02-19T11:27:49.576Z,4620
2017-02-19T11:28:30.197Z,4608
2017-02-19T11:29:10.776Z,4676
2017-02-19T11:29:51.353Z,4808
2017-02-19T11:30:31.955Z,4868
2017-02-19T11:31:12.518Z,5012
2017-02-19T11:31:53.142Z,4980
2017-02-19T11:32:33.737Z,5008
2017-02-19T11:33:14.346Z,4976
2017-02-19T11:33:54.954Z,4936
2017-02-19T11:34:40.147Z,4924
2017-02-19T11:35:20.803Z,4916
2017-02-19T11:36:01.387Z,4860
2017-02-19T11:36:41.938Z,4840
2017-02-19T11:37:22.579Z,4812
2017-02-19T11:38:03.181Z,4808
2017-02-19T11:38:43.774Z,4848
2017-02-19T11:39:24.359Z,4872
2017-02-19T11:40:04.971Z,4936
2017-02-19T11:40:45.630Z,4940
2017-02-19T11:41:26.169Z,4880
2017-02-19T11:42:06.814Z,4816
2017-02-19T11:42:47.381Z,4748
2017-02-19T11:43:27.988Z,4680
2017-02-19T11:44:08.608Z,4600
2017-02-19T11:44:49.266Z,4532
2017-02-19T11:45:29.872Z,4476
2017-02-19T11:46:10.474Z,4452
2017-02-19T11:46:51.081Z,4448
2017-02-19T11:47:31.705Z,4460
2017-02-19T11:48:12.249Z,4488
2017-02-19T11:48:52.829Z,4524
2017-02-19T11:49:33.408Z,4592
2017-02-19T11:50:13.976Z,4632
2017-02-19T11:50:54.581Z,4652
2017-02-19T11:51:35.161Z,4748
2017-02-19T11:52:15.755Z,4824
2017-02-19T11:52:56.336Z,4928
2017-02-19T11:53:36.940Z,4932
2017-02-19T11:54:17.520Z,4956
2017-02-19T11:54:58.104Z,5072
2017-02-19T11:55:38.695Z,5140
2017-02-19T11:56:19.281Z,5300
2017-02-19T11:56:59.864Z,5212
2017-02-19T11:57:40.473Z,5024
2017-02-19T11:58:21.084Z,4988
2017-02-19T11:59:01.732Z,5056
2017-02-19T11:59:42.353Z,4824
2017-02-19T12:00:22.963Z,4756
2017-02-19T12:01:03.560Z,4884
2017-02-19T12:01:44.138Z,4636
2017-02-19T12:02:24.761Z,4716
2017-02-19T12:03:05.362Z,4616
2017-02-19T12:03:45.945Z,4264
2017-02-19T12:04:26.714Z,4076
2017-02-19T12:05:07.286Z,4216
2017-02-19T12:05:47.877Z,4344
2017-02-19T12:06:28.446Z,4128
2017-02-19T12:07:09.128Z,4224
2017-02-19T12:07:49.725Z,4268
2017-02-19T12:08:30.284Z,4192
2017-02-19T12:09:10.892Z,4416
2017-02-19T12:09:51.490Z,4328
2017-02-19T12:10:32.068Z,4416
2017-02-19T12:11:12.659Z,4132
2017-02-19T12:11:53.231Z,3916
2017-02-19T12:12:33.802Z,3744
2017-02-19T12:13:14.377Z,3784
2017-02-19T12:13:54.976Z,3944
2017-02-19T12:14:35.562Z,4148
2017-02-19T12:15:16.170Z,4156
2017-02-19T12:15:56.861Z,4172
2017-02-19T12:16:37.451Z,4020
2017-02-19T12:17:18.046Z,3684
2017-02-19T12:17:58.653Z,3668
2017-02-19T12:18:39.273Z,3812
2017-02-19T12:19:19.928Z,3956
2017-02-19T12:20:00.605Z,4060
2017-02-19T12:20:41.189Z,3972
2017-02-19T12:21:21.782Z,4004
2017-02-19T12:22:02.400Z,3896
2017-02-19T12:22:43.004Z,3632
2017-02-19T12:23:23.589Z,3596
2017-02-19T12:24:04.179Z,3648
2017-02-19T12:24:44.780Z,3644
2017-02-19T12:25:25.338Z,3656
2017-02-19T12:26:05.933Z,4280
2017-02-19T12:26:46.524Z,4616
2017-02-19T12:27:27.101Z,4436
2017-02-19T12:28:07.725Z,4520
2017-02-19T12:28:48.304Z,4576
2017-02-19T12:29:29.788Z,4604
2017-02-19T12:30:10.373Z,4724
2017-02-19T12:30:50.950Z,4736
2017-02-19T12:31:31.531Z,4812
2017-02-19T12:32:12.145Z,4856
2017-02-19T12:32:52.746Z,4476
2017-02-19T12:33:33.437Z,4468
2017-02-19T12:34:14.024Z,4164
2017-02-19T12:34:54.610Z,4056
2017-02-19T12:35:35.255Z,3992
2017-02-19T12:36:16.204Z,4104
2017-02-19T12:36:56.790Z,3912
2017-02-19T12:37:37.362Z,3892
2017-02-19T12:38:17.937Z,3884
2017-02-19T12:38:58.569Z,3876
2017-02-19T12:39:39.155Z,3940
2017-02-19T12:40:19.774Z,4036
2017-02-19T12:41:00.378Z,4376
2017-02-19T12:41:40.963Z,4488
2017-02-19T12:42:21.575Z,4840
2017-02-19T12:43:02.189Z,5204
2017-02-19T12:43:42.773Z,5104
2017-02-19T12:44:23.359Z,4880
2017-02-19T12:45:03.985Z,4756
2017-02-19T12:45:44.617Z,4644
2017-02-19T12:46:25.232Z,4564
2017-02-19T12:47:05.819Z,4704
2017-02-19T12:47:46.407Z,4820
2017-02-19T12:48:27.029Z,5068
2017-02-19T12:49:07.660Z,5140
2017-02-19T12:49:48.264Z,5304
2017-02-19T12:50:28.909Z,5064
2017-02-19T12:51:09.563Z,4612
2017-02-19T12:51:50.165Z,4272
2017-02-19T12:52:30.764Z,4120
2017-02-19T12:53:11.327Z,4300
2017-02-19T12:53:51.907Z,5360
2017-02-19T12:54:32.518Z,5700
2017-02-19T12:55:13.157Z,5640
2017-02-19T12:55:53.755Z,5840
2017-02-19T12:56:34.393Z,5884
2017-02-19T12:57:14.966Z,5872
2017-02-19T12:57:55.579Z,5704
2017-02-19T12:58:36.178Z,5752
2017-02-19T12:59:16.749Z,5756
2017-02-19T12:59:57.334Z,5560
2017-02-19T13:00:37.934Z,5580
2017-02-19T13:01:18.511Z,5724
2017-02-19T13:01:59.769Z,5640
2017-02-19T13:02:40.341Z,5372
2017-02-19T13:03:20.930Z,5072
2017-02-19T13:04:01.549Z,4248
2017-02-19T13:04:42.138Z,4108
2017-02-19T13:05:22.727Z,4020
2017-02-19T13:06:03.302Z,3952
2017-02-19T13:06:43.875Z,3964
2017-02-19T13:07:24.451Z,3976
2017-02-19T13:08:05.022Z,4296
2017-02-19T13:08:45.613Z,3800
2017-02-19T13:09:26.181Z,3644
2017-02-19T13:10:06.757Z,3556
2017-02-19T13:10:47.335Z,3456
2017-02-19T13:11:27.913Z,3380
2017-02-19T13:12:08.513Z,3332
2017-02-19T13:12:49.192Z,3304
2017-02-19T13:13:29.785Z,3276
2017-02-19T13:14:10.397Z,3232
2017-02-19T13:14:51.025Z,3196
2017-02-19T13:15:31.639Z,3136
2017-02-19T13:16:12.219Z,3100
2017-02-19T13:16:52.788Z,3052
2017-02-19T13:17:33.380Z,3012
2017-02-19T13:18:13.954Z,2972
2017-02-19T13:18:54.564Z,2924
2017-02-19T13:19:35.150Z,2872
2017-02-19T13:20:15.762Z,2820
2017-02-19T13:20:56.352Z,2772
2017-02-19T13:21:36.915Z,2720
2017-02-19T13:22:17.523Z,2680
2017-02-19T13:22:58.121Z,2636
2017-02-19T13:23:38.741Z,2596
2017-02-19T13:24:19.416Z,2560
2017-02-19T13:25:00.086Z,2528
2017-02-19T13:25:40.710Z,2496
2017-02-19T13:26:21.294Z,2464
2017-02-19T13:27:01.890Z,2428
2017-02-19T13:27:42.485Z,2384
2017-02-19T13:28:23.095Z,2324
2017-02-19T13:29:03.692Z,2268
2017-02-19T13:29:44.299Z,2216
2017-02-19T13:30:24.902Z,2168
2017-02-19T13:31:05.495Z,2128
2017-02-19T13:31:46.071Z,2100
2017-02-19T13:32:26.654Z,2084
2017-02-19T13:33:07.273Z,2072
2017-02-19T13:33:47.856Z,2068
2017-02-19T13:34:28.450Z,2068
2017-02-19T13:35:09.046Z,2072
2017-02-19T13:35:49.707Z,2084
2017-02-19T13:36:30.285Z,2092
2017-02-19T13:37:10.868Z,2116
2017-02-19T13:37:51.483Z,2128
2017-02-19T13:38:32.060Z,2156
2017-02-19T13:39:12.681Z,2164
2017-02-19T13:39:53.281Z,2184
2017-02-19T13:40:33.903Z,2212
2017-02-19T13:41:14.506Z,2236
2017-02-19T13:41:55.130Z,2240
2017-02-19T13:42:35.755Z,2240
2017-02-19T13:43:16.344Z,2232
2017-02-19T13:43:56.929Z,2220
2017-02-19T13:44:37.522Z,2192
2017-02-19T13:45:18.122Z,2168
2017-02-19T13:45:58.733Z,2140
2017-02-19T13:46:39.341Z,2112
2017-02-19T13:47:19.937Z,2112
2017-02-19T13:48:00.557Z,2116
2017-02-19T13:48:41.162Z,2108
2017-02-19T13:49:21.806Z,2112
2017-02-19T13:50:02.408Z,2132
2017-02-19T13:50:42.994Z,2164
2017-02-19T13:51:23.627Z,2200
2017-02-19T13:52:04.283Z,2228
2017-02-19T13:52:44.925Z,2252
2017-02-19T13:53:25.572Z,2284
2017-02-19T13:54:06.148Z,2304
2017-02-19T13:54:46.775Z,2304
2017-02-19T13:55:27.362Z,2304
2017-02-19T13:56:07.943Z,2296
2017-02-19T13:56:48.563Z,2284
2017-02-19T13:57:29.175Z,2268
2017-02-19T13:58:09.795Z,2244
2017-02-19T13:58:50.385Z,2228
2017-02-19T13:59:30.982Z,2228
2017-02-19T14:00:11.606Z,2216
2017-02-19T14:00:52.248Z,2204
2017-02-19T14:01:32.833Z,2176
2017-02-19T14:02:13.429Z,2148
2017-02-19T14:02:54.004Z,2112
2017-02-19T14:03:34.577Z,2092
2017-02-19T14:04:15.151Z,2080
2017-02-19T14:04:55.731Z,2084
2017-02-19T14:05:36.320Z,2084
2017-02-19T14:06:16.920Z,2080
2017-02-19T14:06:57.564Z,2076
2017-02-19T14:07:38.147Z,2064
2017-02-19T14:08:18.743Z,2052
2017-02-19T14:08:59.362Z,2048
2017-02-19T14:09:39.921Z,2032
2017-02-19T14:10:20.517Z,2016
2017-02-19T14:11:01.087Z,1996
2017-02-19T14:11:41.701Z,1972
2017-02-19T14:12:22.328Z,1956
2017-02-19T14:13:02.962Z,1932
2017-02-19T14:13:43.500Z,1920
2017-02-19T14:14:24.087Z,1908
2017-02-19T14:15:04.707Z,1892
2017-02-19T14:15:45.286Z,1876
2017-02-19T14:16:25.874Z,1856
2017-02-19T14:17:06.453Z,1828
2017-02-19T14:17:47.044Z,1804
2017-02-19T14:18:27.644Z,1772
2017-02-19T14:19:08.245Z,1740
2017-02-19T14:19:48.815Z,1708
2017-02-19T14:20:29.414Z,1676
2017-02-19T14:21:10.282Z,1648
2017-02-19T14:21:51.095Z,1624
2017-02-19T14:22:31.674Z,1596
2017-02-19T14:23:12.250Z,1572
2017-02-19T14:23:52.838Z,1552
2017-02-19T14:24:33.422Z,1536
2017-02-19T14:25:14.007Z,1524
2017-02-19T14:25:54.609Z,1512
2017-02-19T14:26:35.184Z,1500
2017-02-19T14:27:15.784Z,1484
2017-02-19T14:27:56.350Z,1464
2017-02-19T14:28:36.937Z,1440
2017-02-19T14:29:17.500Z,1412
2017-02-19T14:29:58.085Z,1376
2017-02-19T14:30:38.657Z,1348
2017-02-19T14:31:19.237Z,1312
2017-02-19T14:31:59.824Z,1276
2017-02-19T14:32:40.399Z,1232
2017-02-19T14:33:20.982Z,1180
2017-02-19T14:34:01.587Z,1136
2017-02-19T14:34:42.167Z,1084
2017-02-19T14:35:22.756Z,1008
2017-02-19T14:36:03.344Z,912
2017-02-19T14:36:43.921Z,840
2017-02-19T14:37:24.496Z,808
2017-02-19T14:38:05.078Z,788
2017-02-19T14:38:45.673Z,740
2017-02-19T14:39:26.319Z,680
2017-02-19T14:40:06.880Z,632
2017-02-19T14:40:47.472Z,612
2017-02-19T14:41:28.097Z,604
2017-02-19T14:42:08.630Z,596
2017-02-19T14:42:49.265Z,596
2017-02-19T14:43:29.845Z,604
2017-02-19T14:44:10.427Z,612
2017-02-19T14:44:51.021Z,616
2017-02-19T14:45:31.606Z,620
2017-02-19T14:46:12.193Z,624
2017-02-19T14:46:52.773Z,624
2017-02-19T14:47:33.363Z,620
2017-02-19T14:48:13.960Z,624
2017-02-19T14:48:54.540Z,632
2017-02-19T14:49:35.137Z,648
2017-02-19T14:50:15.758Z,656
2017-02-19T14:50:56.330Z,664
2017-02-19T14:51:36.934Z,668
2017-02-19T14:52:17.555Z,672
2017-02-19T14:52:58.146Z,680
2017-02-19T14:53:38.732Z,696
2017-02-19T14:54:19.344Z,712
2017-02-19T14:54:59.972Z,724
2017-02-19T14:55:40.518Z,732
2017-02-19T14:56:21.141Z,732
2017-02-19T14:57:01.716Z,720
2017-02-19T14:57:42.355Z,704
2017-02-19T14:58:22.974Z,704
2017-02-19T14:59:03.560Z,692
2017-02-19T14:59:44.141Z,692
2017-02-19T15:00:24.720Z,708
2017-02-19T15:01:05.366Z,704
2017-02-19T15:01:45.962Z,668
2017-02-19T15:02:26.547Z,628
2017-02-19T15:03:07.168Z,596
2017-02-19T15:03:47.766Z,568
2017-02-19T15:04:28.414Z,548
2017-02-19T15:05:08.978Z,536
2017-02-19T15:05:49.582Z,528
2017-02-19T15:06:30.197Z,528
2017-02-19T15:07:10.821Z,524
2017-02-19T15:07:51.464Z,508
2017-02-19T15:08:32.034Z,488
2017-02-19T15:09:12.670Z,488
2017-02-19T15:09:53.294Z,496
2017-02-19T15:10:33.891Z,512
2017-02-19T15:11:14.532Z,516
2017-02-19T15:11:55.124Z,512
2017-02-19T15:12:35.716Z,492
2017-02-19T15:13:16.320Z,452
2017-02-19T15:13:56.935Z,428
2017-02-19T15:14:37.574Z,404
2017-02-19T15:15:18.179Z,392
2017-02-19T15:15:58.767Z,372
2017-02-19T15:16:39.383Z,344
2017-02-19T15:17:19.997Z,328
2017-02-19T15:18:00.598Z,312
2017-02-19T15:18:41.174Z,316
2017-02-19T15:19:21.755Z,304
2017-02-19T15:20:02.377Z,284
2017-02-19T15:20:42.981Z,280
2017-02-19T15:21:23.566Z,280
2017-02-19T15:22:04.172Z,276
2017-02-19T15:22:44.794Z,256
2017-02-19T15:23:25.397Z,244
2017-02-19T15:24:06.019Z,228
2017-02-19T15:24:46.636Z,224
2017-02-19T15:25:27.248Z,216
2017-02-19T15:26:07.861Z,204
2017-02-19T15:26:48.501Z,200
2017-02-19T15:27:29.152Z,200
2017-02-19T15:28:09.740Z,192
2017-02-19T15:28:50.356Z,192
2017-02-19T15:29:30.960Z,200
2017-02-19T15:30:11.561Z,208
2017-02-19T15:30:52.215Z,220
2017-02-19T15:31:32.818Z,232
2017-02-19T15:32:13.424Z,236
2017-02-19T15:32:54.013Z,236
2017-02-19T15:33:34.624Z,228
2017-02-19T15:34:15.214Z,232
2017-02-19T15:34:55.795Z,232
2017-02-19T15:35:36.383Z,232
2017-02-19T15:36:16.987Z,224
2017-02-19T15:36:57.598Z,224
2017-02-19T15:37:38.182Z,220
2017-02-19T15:38:18.790Z,228
2017-02-19T15:38:59.435Z,240
2017-02-19T15:39:40.014Z,244
2017-02-19T15:40:20.605Z,252
2017-02-19T15:41:01.216Z,256
2017-02-19T15:41:41.829Z,252
2017-02-19T15:42:22.452Z,248
2017-02-19T15:43:03.064Z,248
2017-02-19T15:43:43.669Z,252
2017-02-19T15:44:24.281Z,252
2017-02-19T15:45:04.875Z,252
2017-02-19T15:45:45.460Z,252
2017-02-19T15:46:26.071Z,248
2017-02-19T15:47:06.695Z,248
2017-02-19T15:47:47.324Z,244
2017-02-19T15:48:27.954Z,236
2017-02-19T15:49:08.561Z,232
2017-02-19T15:49:49.189Z,220
2017-02-19T15:50:29.788Z,212
2017-02-19T15:51:10.385Z,200
2017-02-19T15:51:50.981Z,188
2017-02-19T15:52:31.608Z,180
2017-02-19T15:53:12.211Z,160
2017-02-19T15:53:52.821Z,144
2017-02-19T15:54:33.416Z,136
2017-02-19T15:55:14.009Z,128
2017-02-19T15:55:54.611Z,120
2017-02-19T15:56:35.222Z,116
2017-02-19T15:57:15.787Z,120
2017-02-19T15:57:56.368Z,116
2017-02-19T15:58:36.947Z,120
2017-02-19T15:59:17.551Z,116
2017-02-19T15:59:58.142Z,116
2017-02-19T16:00:38.768Z,112
2017-02-19T16:01:19.372Z,108
2017-02-19T16:02:00.009Z,100
2017-02-19T16:02:40.606Z,96
2017-02-19T16:03:21.205Z,92
2017-02-19T16:04:01.818Z,92
2017-02-19T16:04:42.429Z,84
2017-02-19T16:05:23.069Z,84
2017-02-19T16:06:03.671Z,80
2017-02-19T16:06:44.283Z,84
2017-02-19T16:07:24.878Z,80
2017-02-19T16:08:05.477Z,80
2017-02-19T16:08:46.065Z,76
2017-02-19T16:09:26.665Z,72
2017-02-19T16:10:07.246Z,68
2017-02-19T16:10:47.846Z,68
2017-02-19T16:11:28.451Z,64
2017-02-19T16:12:09.045Z,64
2017-02-19T16:12:49.653Z,60
2017-02-19T16:13:30.271Z,56
2017-02-19T16:14:10.886Z,56
2017-02-19T16:14:51.464Z,52
2017-02-19T16:15:32.102Z,52
2017-02-19T16:16:12.722Z,48
2017-02-19T16:16:53.320Z,48
2017-02-19T16:17:33.912Z,48
2017-02-19T16:18:14.521Z,44
2017-02-19T16:18:55.113Z,40
2017-02-19T16:19:35.683Z,40
2017-02-19T16:20:16.268Z,40
2017-02-19T16:20:56.848Z,32
2017-02-19T16:21:37.433Z,32
2017-02-19T16:22:18.008Z,32
2017-02-19T16:22:58.624Z,28
2017-02-19T16:23:39.194Z,28
2017-02-19T16:24:19.779Z,24
2017-02-19T16:25:00.360Z,24
2017-02-19T16:25:40.940Z,24
2017-02-19T16:26:21.513Z,20
2017-02-19T16:27:02.105Z,20
2017-02-19T16:27:42.728Z,16
2017-02-19T16:28:23.295Z,16
2017-02-19T16:29:03.890Z,16
2017-02-19T16:29:44.484Z,12
2017-02-19T16:30:25.096Z,12
2017-02-19T16:31:05.684Z,16
2017-02-19T16:31:46.258Z,12
2017-02-19T16:32:26.856Z,12
2017-02-19T16:33:07.440Z,8
2017-02-19T16:33:48.026Z,12
2017-02-19T16:34:28.620Z,12
2017-02-19T16:35:09.229Z,8
2017-02-19T16:35:49.826Z,8
2017-02-19T16:36:30.459Z,8
2017-02-19T16:37:11.056Z,8
2017-02-19T16:37:51.658Z,8
2017-02-19T16:38:32.280Z,4
2017-02-19T16:39:12.877Z,4
2017-02-19T16:39:53.477Z,8
2017-02-19T16:40:34.085Z,4
2017-02-19T16:41:14.683Z,4
2017-02-19T16:41:55.271Z,4
2017-02-19T16:42:35.900Z,4
2017-02-19T16:43:16.503Z,4
2017-02-19T16:43:57.095Z,4
2017-02-19T16:44:37.676Z,0
2017-02-19T16:45:18.274Z,0
2017-02-19T16:45:58.850Z,0
2017-02-19T16:46:39.440Z,0
2017-02-19T16:47:20.033Z,4
2017-02-19T16:48:00.616Z,4
2017-02-19T16:48:41.210Z,4
2017-02-19T16:49:21.820Z,0
2017-02-19T16:50:02.408Z,0
2017-02-19T16:50:42.985Z,0
2017-02-19T16:51:23.603Z,0
2017-02-19T16:52:04.182Z,0
2017-02-19T16:52:44.758Z,0
2017-02-19T16:53:25.350Z,0
2017-02-19T16:54:05.945Z,0
2017-02-19T16:54:46.527Z,0
2017-02-19T16:55:27.103Z,0
2017-02-19T16:56:07.690Z,0
2017-02-19T16:56:48.258Z,0
2017-02-19T16:57:28.849Z,0
2017-02-19T16:58:09.436Z,0
2017-02-19T16:58:50.037Z,0
2017-02-19T16:59:30.600Z,0
2017-02-19T17:00:11.171Z,0
2017-02-19T17:00:51.776Z,0
2017-02-19T17:01:32.353Z,0
2017-02-19T17:02:12.952Z,0
2017-02-19T17:02:53.540Z,0
2017-02-19T17:03:34.145Z,0
2017-02-19T17:04:14.751Z,0
2017-02-19T17:04:55.351Z,0
2017-02-19T17:05:35.973Z,0
2017-02-19T17:06:16.521Z,0
2017-02-19T17:06:57.145Z,0
2017-02-19T17:07:37.717Z,0
2017-02-19T17:08:18.319Z,0
2017-02-19T17:08:58.922Z,0
2017-02-19T17:09:39.497Z,0
2017-02-19T17:10:20.073Z,0
2017-02-19T17:11:00.660Z,0
2017-02-19T17:11:41.284Z,0
2017-02-19T17:12:21.891Z,0
2017-02-19T17:13:02.493Z,0
2017-02-19T17:13:43.065Z,0
2017-02-19T17:14:23.700Z,0
2017-02-19T17:15:04.279Z,0
2017-02-19T17:15:44.843Z,0
2017-02-19T17:16:25.417Z,0
2017-02-19T17:17:06.025Z,0
2017-02-19T17:17:46.698Z,0
2017-02-19T17:18:27.362Z,0
2017-02-19T17:19:08.003Z,0
2017-02-19T17:19:48.671Z,0
2017-02-19T17:20:29.277Z,0
2017-02-19T17:21:09.885Z,0
2017-02-19T17:21:50.571Z,0
2017-02-19T17:22:31.164Z,0
2017-02-19T17:23:11.759Z,0
2017-02-19T17:23:52.395Z,0
2017-02-19T17:24:32.963Z,0
2017-02-19T17:25:13.547Z,0
2017-02-19T17:25:54.117Z,0
2017-02-19T17:26:34.724Z,0
2017-02-19T17:27:15.283Z,0
2017-02-19T17:27:55.867Z,0
2017-02-19T17:28:36.452Z,0
2017-02-19T17:29:17.038Z,0
2017-02-19T17:29:57.617Z,0
2017-02-19T17:30:38.201Z,0
2017-02-19T17:31:18.791Z,0
2017-02-19T17:31:59.368Z,0
2017-02-19T17:32:39.950Z,0
2017-02-19T17:33:20.551Z,0
2017-02-19T17:34:01.160Z,0
2017-02-19T17:34:41.754Z,0
2017-02-19T17:35:22.327Z,0
2017-02-19T17:36:02.925Z,0
2017-02-19T17:36:43.543Z,0
2017-02-19T17:37:24.140Z,0
2017-02-19T17:38:04.722Z,0
2017-02-19T17:38:45.342Z,0
2017-02-19T17:39:25.929Z,0
2017-02-19T17:40:06.503Z,0
2017-02-19T17:40:47.076Z,0
2017-02-19T17:41:27.669Z,0
2017-02-19T17:42:08.251Z,0
2017-02-19T17:42:48.853Z,0
2017-02-19T17:43:29.451Z,0
2017-02-19T17:44:10.038Z,0
2017-02-19T17:44:50.626Z,0
2017-02-19T17:45:31.232Z,0
2017-02-19T17:46:11.810Z,0
2017-02-19T17:46:52.386Z,0
2017-02-19T17:47:32.973Z,4
2017-02-19T17:48:13.547Z,0
2017-02-19T17:48:54.134Z,0
2017-02-19T17:49:34.701Z,0
2017-02-19T17:50:15.271Z,0
2017-02-19T17:50:55.845Z,0
2017-02-19T17:51:36.403Z,0
2017-02-19T17:52:16.988Z,0
2017-02-19T17:52:57.583Z,0
2017-02-19T17:53:38.155Z,0
2017-02-19T17:54:18.761Z,0
2017-02-19T17:54:59.345Z,0
2017-02-19T17:55:39.932Z,0
2017-02-19T17:56:20.517Z,0
2017-02-19T17:57:01.096Z,0
2017-02-19T17:57:41.666Z,0
2017-02-19T17:58:22.256Z,0
2017-02-19T17:59:02.828Z,0
2017-02-19T17:59:43.400Z,0
2017-02-19T18:00:23.982Z,0
2017-02-19T18:01:04.554Z,0
2017-02-19T18:01:45.137Z,0
2017-02-19T18:02:25.719Z,0
2017-02-19T18:03:06.300Z,0
2017-02-19T18:03:46.890Z,0
2017-02-19T18:04:27.473Z,0
2017-02-19T18:05:08.082Z,0
2017-02-19T18:05:48.675Z,0
2017-02-19T18:06:29.267Z,0
2017-02-19T18:07:09.860Z,0
2017-02-19T18:07:50.430Z,0
2017-02-19T18:08:31.031Z,0
2017-02-19T18:09:11.624Z,0
2017-02-19T18:09:52.196Z,0
2017-02-19T18:10:32.793Z,0
2017-02-19T18:11:13.349Z,0
2017-02-19T18:11:53.926Z,0
2017-02-19T18:12:34.500Z,0
2017-02-19T18:13:15.089Z,0
2017-02-19T18:13:55.679Z,0
2017-02-19T18:14:36.261Z,0
2017-02-19T18:15:16.847Z,0
2017-02-19T18:15:57.423Z,0
2017-02-19T18:16:38.022Z,0
2017-02-19T18:17:18.599Z,0
2017-02-19T18:17:59.198Z,0
2017-02-19T18:18:39.811Z,0
2017-02-19T18:19:20.413Z,0
2017-02-19T18:20:01.011Z,0
2017-02-19T18:20:41.617Z,0
2017-02-19T18:21:22.215Z,0
2017-02-19T18:22:02.814Z,0
2017-02-19T18:22:43.416Z,0
2017-02-19T18:23:23.977Z,0
2017-02-19T18:24:04.566Z,0
2017-02-19T18:24:45.159Z,0
2017-02-19T18:25:25.735Z,0
2017-02-19T18:26:06.313Z,0
2017-02-19T18:26:46.885Z,0
2017-02-19T18:27:27.462Z,0
2017-02-19T18:28:08.044Z,0
2017-02-19T18:28:48.635Z,0
2017-02-19T18:29:29.268Z,0
2017-02-19T18:30:09.904Z,0
2017-02-19T18:30:51.455Z,0
2017-02-19T18:31:32.007Z,0
2017-02-19T18:32:12.578Z,0
2017-02-19T18:32:53.174Z,0
2017-02-19T18:33:33.746Z,0
2017-02-19T18:34:14.496Z,0
2017-02-19T18:34:55.145Z,0
2017-02-19T18:35:35.791Z,0
2017-02-19T18:36:16.393Z,0
2017-02-19T18:36:57.315Z,0
2017-02-19T18:37:38.159Z,0
2017-02-19T18:38:19.534Z,0
2017-02-19T18:39:00.120Z,0
2017-02-19T18:39:40.808Z,0
2017-02-19T18:40:21.337Z,0
2017-02-19T18:41:01.944Z,0
2017-02-19T18:41:42.520Z,0
2017-02-19T18:42:23.168Z,0
2017-02-19T18:43:03.754Z,0
2017-02-19T18:43:44.357Z,0
2017-02-19T18:44:24.962Z,0
2017-02-19T18:45:06.172Z,0
2017-02-19T18:45:46.760Z,0
2017-02-19T18:46:27.334Z,0
2017-02-19T18:47:07.903Z,0
2017-02-19T18:47:48.496Z,0
2017-02-19T18:48:29.055Z,0
2017-02-19T18:49:09.625Z,0
2017-02-19T18:49:50.217Z,0
2017-02-19T18:50:30.805Z,0
2017-02-19T18:51:11.417Z,0
2017-02-19T18:51:51.998Z,0
2017-02-19T18:52:32.592Z,0
2017-02-19T18:53:13.189Z,0
2017-02-19T18:53:53.749Z,0
2017-02-19T18:54:34.323Z,0
2017-02-19T18:55:14.934Z,0
2017-02-19T18:55:55.548Z,0
2017-02-19T18:56:36.170Z,0
2017-02-19T18:57:16.754Z,0
2017-02-19T18:57:57.323Z,0
2017-02-19T18:58:37.919Z,0
2017-02-19T18:59:18.559Z,0
2017-02-19T18:59:59.218Z,0
2017-02-19T19:00:39.826Z,0
2017-02-19T19:01:20.433Z,0
2017-02-19T19:02:01.040Z,0
2017-02-19T19:02:41.611Z,0
2017-02-19T19:03:22.171Z,0
2017-02-19T19:04:02.763Z,0
2017-02-19T19:04:43.350Z,0
2017-02-19T19:05:23.929Z,0
2017-02-19T19:06:04.518Z,0
2017-02-19T19:06:45.097Z,0
2017-02-19T19:07:25.692Z,0
2017-02-19T19:08:06.324Z,0
2017-02-19T19:08:46.909Z,0
2017-02-19T19:09:27.517Z,0
2017-02-19T19:10:08.098Z,0
2017-02-19T19:10:48.704Z,0
2017-02-19T19:11:29.373Z,0
2017-02-19T19:12:09.982Z,0
2017-02-19T19:12:50.583Z,0
2017-02-19T19:13:31.193Z,0
2017-02-19T19:14:11.767Z,0
2017-02-19T19:14:52.371Z,0
2017-02-19T19:15:32.949Z,0
2017-02-19T19:16:13.577Z,0
2017-02-19T19:16:54.207Z,0
2017-02-19T19:17:35.027Z,0
2017-02-19T19:18:15.662Z,0
2017-02-19T19:18:56.471Z,0
2017-02-19T19:19:36.826Z,0
2017-02-19T19:20:17.420Z,0
2017-02-19T19:20:58.008Z,0
2017-02-19T19:21:38.575Z,0
2017-02-19T19:22:19.150Z,0
2017-02-19T19:22:59.758Z,0
2017-02-19T19:23:40.332Z,0
2017-02-19T19:24:20.983Z,0
2017-02-19T19:25:01.605Z,0
2017-02-19T19:25:42.197Z,0
2017-02-19T19:26:22.782Z,0
2017-02-19T19:27:03.371Z,0
2017-02-19T19:27:43.963Z,0
2017-02-19T19:28:24.547Z,0
2017-02-19T19:29:05.166Z,0
2017-02-19T19:29:45.746Z,0
2017-02-19T19:30:26.340Z,0
2017-02-19T19:31:06.976Z,0
2017-02-19T19:31:47.584Z,0
2017-02-19T19:32:28.168Z,0
2017-02-19T19:33:08.743Z,0
2017-02-19T19:33:49.318Z,0
2017-02-19T19:34:29.908Z,0
2017-02-19T19:35:10.537Z,0
2017-02-19T19:35:51.137Z,0
2017-02-19T19:36:31.718Z,0
2017-02-19T19:37:12.308Z,0
2017-02-19T19:37:52.890Z,0
2017-02-19T19:38:33.504Z,0
2017-02-19T19:39:14.117Z,0
2017-02-19T19:39:54.709Z,0
2017-02-19T19:40:35.324Z,0
2017-02-19T19:41:15.908Z,0
2017-02-19T19:41:56.492Z,0
2017-02-19T19:42:38.136Z,0
2017-02-19T19:43:18.192Z,0
2017-02-19T19:43:58.807Z,0
2017-02-19T19:44:39.401Z,0
2017-02-19T19:45:20.002Z,0
2017-02-19T19:46:00.614Z,0
2017-02-19T19:46:41.875Z,0
2017-02-19T19:47:22.460Z,0
2017-02-19T19:48:03.053Z,0
2017-02-19T19:48:43.626Z,0
2017-02-19T19:49:24.213Z,0
2017-02-19T19:50:04.804Z,0
2017-02-19T19:50:45.408Z,0
2017-02-19T19:51:26.022Z,0
2017-02-19T19:52:06.621Z,0
2017-02-19T19:52:47.231Z,0
2017-02-19T19:53:27.807Z,0
2017-02-19T19:54:08.400Z,0
2017-02-19T19:54:49.008Z,0
2017-02-19T19:57:01.860Z,0
2017-02-19T19:57:42.443Z,0
2017-02-19T19:58:24.222Z,0
2017-02-19T19:59:05.125Z,0
2017-02-19T19:59:46.460Z,0
2017-02-19T20:00:27.064Z,0
2017-02-19T20:01:07.673Z,0
2017-02-19T20:01:48.295Z,0
2017-02-19T20:02:28.951Z,0
2017-02-19T20:03:09.945Z,0
2017-02-19T20:03:51.274Z,0
2017-02-19T20:04:31.873Z,0
2017-02-19T20:05:12.588Z,0